Cedar City, Utah
Current Conditions -  °F | °C
As of 8:53 PM on Sunday 25 Jan 2015 (Local Time) from KCDC Reporting Station
Clear Clear  
Wind Chill: 26°   Ceiling: Unl
Heat Index: 32°   Visibility: 10mi
Dew Point: 27°   Wind: 6mph
Humidity: 82%   Direction: 180°S
Pressure: 30.37"   Gusts: NA
Location:  37.68°N, 113.06°W
Report Text: KCDC 260353Z AUTO 18005KT 10SM CLR 00/M03 A3037 RMK AO2 SLP294 T00001028
Loading
Personal Weather Stations






























Interactive Weather Map New forecast layout! Learn more

10-Day Weather Forecast

Advertisements
Track Severe Weather on mobile